createdAt,value
2018-07-20T00:04:49.615Z,45.52
2018-07-20T00:09:53.376Z,45.17
2018-07-20T00:14:57.114Z,44.80
2018-07-20T00:20:00.999Z,44.50
2018-07-20T00:25:12.522Z,44.79
2018-07-20T00:30:16.327Z,45.08
2018-07-20T00:35:20.078Z,45.19
2018-07-20T00:40:23.805Z,44.89
2018-07-20T00:45:27.470Z,44.64
2018-07-20T00:50:31.227Z,45.20
2018-07-20T00:55:35.070Z,44.79
2018-07-20T01:00:38.809Z,44.90
2018-07-20T01:05:42.532Z,45.10
2018-07-20T01:10:46.374Z,45.17
2018-07-20T01:15:50.090Z,45.07
2018-07-20T01:20:54.282Z,44.73
2018-07-20T01:25:58.015Z,44.95
2018-07-20T01:31:01.711Z,45.04
2018-07-20T01:36:05.481Z,45.13
2018-07-20T01:41:09.811Z,44.73
2018-07-20T01:46:13.487Z,44.76
2018-07-20T01:51:17.227Z,44.86
2018-07-20T01:56:20.973Z,45.21
2018-07-20T02:01:24.703Z,45.47
2018-07-20T02:06:28.403Z,44.89
2018-07-20T02:11:32.110Z,44.90
2018-07-20T02:16:35.920Z,44.91
2018-07-20T02:21:40.571Z,45.38
2018-07-20T02:26:44.326Z,45.18
2018-07-20T02:31:48.030Z,45.35
2018-07-20T02:36:51.695Z,45.38
2018-07-20T02:41:55.369Z,45.07
2018-07-20T02:46:59.055Z,44.88
2018-07-20T02:52:02.835Z,45.24
2018-07-20T02:57:06.642Z,44.83
2018-07-20T03:02:10.370Z,45.08
2018-07-20T03:07:14.148Z,44.62
2018-07-20T03:12:17.902Z,45.02
2018-07-20T03:17:21.571Z,44.66
2018-07-20T03:22:25.423Z,44.46
2018-07-20T03:27:29.187Z,44.57
2018-07-20T03:32:32.860Z,45.01
2018-07-20T03:37:36.643Z,45.23
2018-07-20T03:42:40.700Z,44.64
2018-07-20T03:47:44.394Z,44.95
2018-07-20T03:52:48.071Z,44.85
2018-07-20T03:57:51.786Z,44.54
2018-07-20T04:02:55.467Z,44.80
2018-07-20T04:07:59.178Z,45.16
2018-07-20T04:13:02.980Z,48.71
2018-07-20T04:18:06.918Z,49.86
2018-07-20T04:23:10.640Z,51.12
2018-07-20T04:28:14.323Z,51.97
2018-07-20T04:33:18.018Z,52.55
2018-07-20T04:38:21.731Z,52.94
2018-07-20T04:43:25.392Z,54.00
2018-07-20T04:48:29.589Z,53.90
2018-07-20T04:53:33.326Z,54.32
2018-07-20T04:58:37.009Z,55.05
2018-07-20T05:03:40.824Z,55.82
2018-07-20T05:08:44.486Z,55.94
2018-07-20T05:13:48.170Z,56.18
2018-07-20T05:18:51.872Z,56.89
2018-07-20T05:23:55.586Z,56.99
2018-07-20T05:28:59.238Z,56.42
2018-07-20T05:34:02.935Z,56.22
2018-07-20T05:39:08.766Z,55.99
2018-07-20T05:44:12.457Z,55.21
2018-07-20T05:49:16.143Z,55.93
2018-07-20T05:54:19.838Z,54.51
2018-07-20T05:59:23.590Z,54.77
2018-07-20T06:04:27.577Z,54.75
2018-07-20T06:09:31.253Z,55.32
2018-07-20T06:14:34.898Z,54.55
2018-07-20T06:19:38.641Z,54.33
2018-07-20T06:24:42.847Z,53.80
2018-07-20T06:29:46.530Z,53.05
2018-07-20T06:34:50.202Z,53.49
2018-07-20T06:39:53.894Z,52.90
2018-07-20T06:44:57.615Z,51.93
2018-07-20T06:50:03.658Z,51.40
2018-07-20T06:55:07.424Z,51.67
2018-07-20T07:00:11.439Z,51.20
2018-07-20T07:05:15.167Z,50.77
2018-07-20T07:10:18.905Z,51.10
2018-07-20T07:15:22.526Z,51.23
2018-07-20T07:20:26.264Z,49.70
2018-07-20T07:25:30.018Z,50.01
2018-07-20T07:30:35.031Z,49.67
2018-07-20T07:35:38.758Z,49.81
2018-07-20T07:40:42.505Z,48.95
2018-07-20T07:45:47.250Z,47.35
2018-07-20T07:50:52.268Z,47.57
2018-07-20T07:55:56.809Z,46.87
2018-07-20T08:01:01.352Z,46.16
2018-07-20T08:06:05.000Z,45.48
2018-07-20T08:11:08.789Z,44.18
2018-07-20T08:16:12.507Z,44.71
2018-07-20T08:21:17.157Z,44.48
2018-07-20T08:26:20.877Z,43.97
2018-07-20T08:31:24.827Z,43.94
2018-07-20T08:36:28.557Z,44.55
2018-07-20T08:41:33.221Z,43.34
2018-07-20T08:46:37.025Z,44.60
2018-07-20T08:51:40.626Z,44.34
2018-07-20T08:56:44.366Z,44.27
2018-07-20T09:01:49.121Z,42.70
2018-07-20T09:06:52.907Z,42.53
2018-07-20T09:11:56.675Z,41.59
2018-07-20T09:17:00.351Z,40.98
2018-07-20T09:22:04.444Z,41.68
2018-07-20T09:27:08.118Z,42.52
2018-07-20T09:32:11.817Z,42.54
2018-07-20T09:37:15.455Z,43.08
2018-07-20T09:42:19.197Z,43.17
2018-07-20T09:47:22.998Z,43.63
2018-07-20T09:52:26.793Z,43.74
2018-07-20T09:57:30.558Z,43.39
2018-07-20T10:02:34.331Z,43.45
2018-07-20T10:07:38.095Z,44.92
2018-07-20T10:12:41.960Z,45.85
2018-07-20T10:17:45.551Z,46.16
2018-07-20T10:22:49.189Z,44.21
2018-07-20T10:27:52.959Z,44.77
2018-07-20T10:32:56.670Z,44.84
2018-07-20T10:38:00.362Z,46.11
2018-07-20T10:43:04.069Z,45.74
2018-07-20T10:48:07.810Z,46.62
2018-07-20T10:53:11.475Z,49.09
2018-07-20T10:58:15.246Z,49.12
2018-07-20T11:03:19.065Z,49.08
2018-07-20T11:08:22.709Z,49.38
2018-07-20T11:13:26.748Z,49.27
2018-07-20T11:18:30.465Z,49.39
2018-07-20T11:23:34.200Z,48.90
2018-07-20T11:28:38.142Z,49.18
2018-07-20T11:33:41.874Z,49.07
2018-07-20T11:38:45.559Z,49.08
2018-07-20T11:43:49.279Z,48.56
2018-07-20T11:48:52.941Z,48.59
2018-07-20T11:53:56.687Z,48.69
2018-07-20T11:59:00.431Z,48.55
2018-07-20T12:04:04.051Z,48.76
2018-07-20T12:09:10.126Z,48.78
2018-07-20T12:14:13.817Z,47.63
2018-07-20T12:19:17.500Z,47.53
2018-07-20T12:24:21.329Z,44.59
2018-07-20T12:29:25.145Z,44.67
2018-07-20T12:34:28.857Z,44.80
2018-07-20T12:39:32.579Z,44.58
2018-07-20T12:44:36.334Z,45.19
2018-07-20T12:49:40.026Z,45.04
2018-07-20T12:54:43.767Z,44.89
2018-07-20T12:59:47.887Z,44.90
2018-07-20T13:04:51.814Z,45.36
2018-07-20T13:09:55.552Z,45.07
2018-07-20T13:14:59.248Z,45.46
2018-07-20T13:20:06.552Z,45.23
2018-07-20T13:25:11.646Z,45.24
2018-07-20T13:30:15.611Z,45.11
2018-07-20T13:35:19.351Z,45.05
2018-07-20T13:40:23.232Z,44.91
2018-07-20T13:45:27.562Z,44.76
2018-07-20T13:50:31.331Z,44.86
2018-07-20T13:55:35.218Z,45.12
2018-07-20T14:00:38.954Z,44.43
2018-07-20T14:05:42.871Z,44.97
2018-07-20T14:10:46.655Z,44.95
2018-07-20T14:15:50.418Z,44.68
2018-07-20T14:20:54.331Z,45.17
2018-07-20T14:25:58.346Z,44.41
2018-07-20T14:31:02.169Z,45.01
2018-07-20T14:36:06.058Z,44.50
2018-07-20T14:41:09.890Z,44.80
2018-07-20T14:46:14.239Z,44.54
2018-07-20T14:51:18.006Z,44.22
2018-07-20T14:56:21.727Z,44.61
2018-07-20T15:01:25.751Z,44.13
2018-07-20T15:06:29.483Z,44.58
2018-07-20T15:11:33.174Z,44.25
2018-07-20T15:16:36.919Z,44.45
2018-07-20T15:21:40.631Z,44.58
2018-07-20T15:26:44.322Z,44.48
2018-07-20T15:31:48.049Z,44.45
2018-07-20T15:36:51.907Z,44.20
2018-07-20T15:41:56.807Z,44.37
2018-07-20T15:47:00.899Z,44.25
2018-07-20T15:57:08.463Z,45.13
2018-07-20T16:02:13.593Z,45.08
2018-07-20T16:07:17.289Z,44.18
2018-07-20T16:12:21.248Z,44.00
2018-07-20T16:17:25.272Z,43.89
2018-07-20T16:22:29.238Z,44.01
2018-07-20T16:27:33.464Z,44.45
2018-07-20T16:32:37.515Z,43.50
2018-07-20T16:37:41.419Z,43.85
2018-07-20T16:42:46.278Z,44.29
2018-07-20T16:47:50.196Z,43.73
2018-07-20T16:52:54.037Z,43.66
2018-07-20T16:57:57.762Z,43.42
2018-07-20T17:03:02.477Z,43.20
2018-07-20T17:08:06.217Z,42.99
2018-07-20T17:13:10.031Z,42.22
2018-07-20T17:18:13.747Z,42.76
2018-07-20T17:23:17.497Z,43.34
2018-07-20T17:28:21.153Z,42.76
2018-07-20T17:33:24.781Z,42.75
2018-07-20T17:38:28.548Z,43.15
2018-07-20T17:43:32.471Z,42.69
2018-07-20T17:48:36.401Z,42.17
2018-07-20T17:53:40.486Z,41.36
2018-07-20T17:58:44.567Z,42.38
2018-07-20T18:03:48.541Z,41.59
2018-07-20T18:08:52.520Z,41.36
2018-07-20T18:13:56.321Z,41.60
2018-07-20T18:19:01.205Z,41.56
2018-07-20T18:24:06.049Z,41.57
2018-07-20T18:29:10.433Z,42.33
2018-07-20T18:34:15.389Z,42.18
2018-07-20T18:39:20.554Z,41.74
2018-07-20T18:44:25.430Z,41.72
2018-07-20T18:49:30.305Z,41.54
2018-07-20T18:54:35.149Z,42.42
2018-07-20T18:59:40.347Z,43.25
2018-07-20T19:04:44.921Z,42.20
2018-07-20T19:09:49.249Z,42.40
2018-07-20T19:14:54.230Z,43.16
2018-07-20T19:19:59.146Z,42.89
2018-07-20T19:25:06.684Z,42.78
2018-07-20T19:30:11.898Z,43.54
2018-07-20T19:35:16.617Z,43.68
2018-07-20T19:40:21.490Z,43.37
2018-07-20T19:45:25.659Z,42.88
2018-07-20T19:50:29.441Z,42.52
2018-07-20T19:55:33.265Z,42.85
2018-07-20T20:00:37.923Z,42.80
2018-07-20T20:05:41.742Z,42.64
2018-07-20T20:10:45.514Z,42.79
2018-07-20T20:15:49.805Z,42.27
2018-07-20T20:20:54.923Z,42.50
2018-07-20T20:25:58.924Z,42.21
2018-07-20T20:31:03.335Z,41.52
2018-07-20T20:36:07.363Z,42.59
2018-07-20T20:41:12.053Z,41.21
2018-07-20T20:46:16.348Z,42.17
2018-07-20T20:51:20.294Z,41.35
2018-07-20T20:56:24.246Z,41.31
2018-07-20T21:01:27.999Z,40.77
2018-07-20T21:06:31.752Z,41.23
2018-07-20T21:11:35.612Z,40.39
2018-07-20T21:16:39.439Z,39.99
2018-07-20T21:21:43.154Z,40.41
2018-07-20T21:26:46.997Z,41.04
2018-07-20T21:31:50.760Z,41.35
2018-07-20T21:36:55.293Z,41.04
2018-07-20T21:41:59.430Z,41.86
2018-07-20T21:47:03.531Z,41.38
2018-07-20T21:52:08.038Z,41.72
2018-07-20T21:57:11.817Z,41.95
2018-07-20T22:02:15.846Z,42.04
2018-07-20T22:07:19.602Z,42.34
2018-07-20T22:12:23.706Z,42.38
2018-07-20T22:17:27.570Z,42.39
2018-07-20T22:22:31.386Z,42.97
2018-07-20T22:27:35.349Z,42.89
2018-07-20T22:32:39.288Z,42.83
2018-07-20T22:37:43.239Z,42.76
2018-07-20T22:42:46.987Z,43.36
2018-07-20T22:47:50.687Z,43.24
2018-07-20T22:52:55.190Z,43.45
2018-07-20T22:57:58.947Z,43.63
2018-07-20T23:03:02.649Z,43.16
2018-07-20T23:08:06.407Z,43.87
2018-07-20T23:13:10.032Z,43.94
2018-07-20T23:18:13.927Z,43.20
2018-07-20T23:23:17.735Z,42.78
2018-07-20T23:28:21.467Z,43.12
2018-07-20T23:33:25.210Z,42.28
2018-07-20T23:38:29.331Z,42.16
2018-07-20T23:43:34.304Z,42.24
2018-07-20T23:48:38.749Z,42.23
2018-07-20T23:53:42.414Z,41.30
2018-07-20T23:58:46.471Z,41.98
